KEKO/EKO METAR and TAF weather

Enter ICAO airport designator
Station Type Date Time Source
KEKO METAR 2021/07/26 15:56 UTC NOAA

KEKO 261556Z AUTO 06005KT 5SM HZ CLR 24/01 A3011 RMK AO2 SLP126 T02390006


Station Type Date Time Source
KEKO Decoded METAR 2021/07/26 15:56 UTC NOAA

ELKO REGIONAL AIRPORT, NV, United States (KEKO) 40-50N 115-47W 1547M
Jul 26, 2021 - 11:56 AM EDT / 2021.07.26 1556 UTC
Wind: from the ENE (060 degrees) at 6 MPH (5 KT):0
Visibility: 5 mile(s):0
Sky conditions: clear
Weather: haze
Temperature: 75.0 F (23.9 C)
Dew Point: 33.1 F (0.6 C)
Relative Humidity: 21%
Pressure (altimeter): 30.11 in. Hg (1019 hPa)
ob: KEKO 261556Z AUTO 06005KT 5SM HZ CLR 24/01 A3011 RMK AO2 SLP126 T02390006
cycle: 16

Station Type Date Time Source
KEKO TAF 2021/07/26 12:36 UTC NOAA

TAF KEKO 261135Z 2612/2712 07010KT 6SM HZ FEW160
FM261800 14007G15KT 6SM HZ FEW120
FM262200 11010G18KT 6SM HZ SCT120 BKN180
FM270500 18008G15KT 6SM HZ BKN150 BKN200

Example: see airport list